createdAt,value
2024-01-15T00:00:29.967Z,98831.13
2024-01-15T00:02:58.199Z,98825.13
2024-01-15T00:05:25.107Z,98825.16
2024-01-15T00:07:51.994Z,98816.56
2024-01-15T00:10:18.916Z,98816.56
2024-01-15T00:12:45.814Z,98815.72
2024-01-15T00:15:12.799Z,98809.69
2024-01-15T00:17:40.279Z,98797.66
2024-01-15T00:20:08.062Z,98796.81
2024-01-15T00:22:36.634Z,98784.81
2024-01-15T00:25:04.543Z,98779.63
2024-01-15T00:27:31.597Z,98783.94
2024-01-15T00:29:58.552Z,98788.25
2024-01-15T00:32:25.544Z,98782.22
2024-01-15T00:34:52.654Z,98777.91
2024-01-15T00:37:19.933Z,98775.34
2024-01-15T00:39:47.025Z,98782.22
2024-01-15T00:42:14.072Z,98766.78
2024-01-15T00:44:41.019Z,98766.75
2024-01-15T00:47:07.916Z,98759.91
2024-01-15T00:49:34.910Z,98756.47
2024-01-15T00:52:01.814Z,98751.28
2024-01-15T00:54:28.809Z,98752.16
2024-01-15T00:56:56.102Z,98744.41
2024-01-15T00:59:23.185Z,98739.25
2024-01-15T01:01:50.310Z,98731.56
2024-01-15T01:04:17.435Z,98731.53
2024-01-15T01:06:44.537Z,98726.41
2024-01-15T01:09:11.506Z,98722.94
2024-01-15T01:11:38.437Z,98695.50
2024-01-15T01:14:05.325Z,98698.09
2024-01-15T01:16:32.642Z,98698.09
2024-01-15T01:18:59.682Z,98694.66
2024-01-15T01:21:26.951Z,98695.50
2024-01-15T01:23:53.877Z,98692.94
2024-01-15T01:26:20.778Z,98698.94
2024-01-15T01:28:47.699Z,98699.78
2024-01-15T01:31:14.678Z,98692.91
2024-01-15T01:33:42.069Z,98693.78
2024-01-15T01:36:10.870Z,98700.63
2024-01-15T01:38:38.732Z,98689.50
2024-01-15T01:41:05.670Z,98684.34
2024-01-15T01:43:32.603Z,98678.31
2024-01-15T01:46:01.403Z,98670.63
2024-01-15T01:48:29.169Z,98644.91
2024-01-15T01:51:00.400Z,98659.50
2024-01-15T01:53:28.871Z,98656.91
2024-01-15T01:55:57.299Z,98654.31
2024-01-15T01:58:24.516Z,98659.47
2024-01-15T02:00:51.639Z,98655.22
2024-01-15T02:03:18.788Z,98654.34
2024-01-15T02:05:46.330Z,98649.19
2024-01-15T02:08:13.530Z,98638.91
2024-01-15T02:10:40.421Z,98635.50
2024-01-15T02:13:07.454Z,98643.22
2024-01-15T02:15:34.406Z,98631.19
2024-01-15T02:18:11.258Z,98630.34
2024-01-15T02:20:38.507Z,98620.91
2024-01-15T02:23:15.858Z,98604.59
2024-01-15T02:25:47.866Z,98592.59
2024-01-15T02:28:17.838Z,98595.19
2024-01-15T02:30:45.508Z,98585.75
2024-01-15T02:33:14.091Z,98594.31
2024-01-15T02:35:41.583Z,98586.59
2024-01-15T02:38:08.951Z,98584.06
2024-01-15T02:40:36.737Z,98581.44
2024-01-15T02:43:03.890Z,98568.59
2024-01-15T02:45:31.072Z,98553.16
2024-01-15T02:47:58.081Z,98560.88
2024-01-15T02:50:25.084Z,98556.59
2024-01-15T02:52:51.992Z,98561.72
2024-01-15T02:55:18.953Z,98556.56
2024-01-15T02:57:46.303Z,98566.03
2024-01-15T03:00:13.757Z,98574.59
2024-01-15T03:02:46.326Z,98558.31
2024-01-15T03:05:15.485Z,98560.00
2024-01-15T03:07:42.679Z,98554.91
2024-01-15T03:10:10.023Z,98541.13
2024-01-15T03:12:37.149Z,98550.56
2024-01-15T03:15:04.527Z,98550.56
2024-01-15T03:17:31.497Z,98555.75
2024-01-15T03:19:58.586Z,98535.16
2024-01-15T03:22:25.580Z,98543.72
2024-01-15T03:24:54.392Z,98531.69
2024-01-15T03:27:21.518Z,98538.56
2024-01-15T03:29:48.475Z,98536.88
2024-01-15T03:32:17.144Z,98539.44
2024-01-15T03:34:44.305Z,98531.72
2024-01-15T03:37:11.260Z,98543.72
2024-01-15T03:39:38.319Z,98543.72
2024-01-15T03:42:05.627Z,98532.56
2024-01-15T03:44:32.616Z,98523.97
2024-01-15T03:46:59.946Z,98512.81
2024-01-15T03:49:26.979Z,98511.13
2024-01-15T03:51:54.072Z,98496.53
2024-01-15T03:54:21.285Z,98501.66
2024-01-15T03:56:48.342Z,98503.41
2024-01-15T03:59:15.268Z,98508.53
2024-01-15T04:01:42.273Z,98521.41
2024-01-15T04:04:09.448Z,98511.97
2024-01-15T04:06:36.580Z,98505.09
2024-01-15T04:09:03.854Z,98502.56
2024-01-15T04:11:30.767Z,98489.69
2024-01-15T04:13:57.663Z,98502.53
2024-01-15T04:16:24.584Z,98499.97
2024-01-15T04:18:51.545Z,98504.25
2024-01-15T04:21:19.635Z,98505.97
2024-01-15T04:23:46.616Z,98480.25
2024-01-15T04:26:13.522Z,98491.41
2024-01-15T04:28:40.401Z,98478.53
2024-01-15T04:31:07.492Z,98496.53
2024-01-15T04:33:34.626Z,98500.84
2024-01-15T04:36:06.543Z,98499.13
2024-01-15T04:38:34.239Z,98509.38
2024-01-15T04:41:01.241Z,98501.69
2024-01-15T04:43:28.233Z,98504.25
2024-01-15T04:45:55.296Z,98495.66
2024-01-15T04:48:24.116Z,98498.19
2024-01-15T04:50:51.760Z,98488.75
2024-01-15T04:53:18.770Z,98493.06
2024-01-15T04:55:45.659Z,98483.59
2024-01-15T04:58:12.975Z,98474.19
2024-01-15T05:00:40.454Z,98482.75
2024-01-15T05:03:07.626Z,98474.16
2024-01-15T05:05:34.717Z,98468.16
2024-01-15T05:08:01.624Z,98454.41
2024-01-15T05:10:28.502Z,98452.69
2024-01-15T05:12:55.415Z,98456.13
2024-01-15T05:15:22.409Z,98446.69
2024-01-15T05:17:49.593Z,98448.38
2024-01-15T05:20:16.812Z,98455.25
2024-01-15T05:22:43.754Z,98448.38
2024-01-15T05:25:10.654Z,98451.81
2024-01-15T05:27:37.580Z,98453.53
2024-01-15T05:30:05.172Z,98450.09
2024-01-15T05:32:33.159Z,98459.56
2024-01-15T05:35:00.127Z,98468.13
2024-01-15T05:37:27.093Z,98460.41
2024-01-15T05:39:54.131Z,98473.28
2024-01-15T05:42:21.135Z,98456.97
2024-01-15T05:44:48.075Z,98466.41
2024-01-15T05:47:14.979Z,98456.13
2024-01-15T05:49:42.132Z,98467.25
2024-01-15T05:52:09.117Z,98472.44
2024-01-15T05:54:36.068Z,98504.19
2024-01-15T05:57:03.014Z,98497.38
2024-01-15T05:59:32.943Z,98508.53
2024-01-15T06:01:59.901Z,98511.09
2024-01-15T06:04:26.918Z,98512.84
2024-01-15T06:06:53.906Z,98505.13
2024-01-15T06:09:20.836Z,98509.41
2024-01-15T06:11:47.748Z,98507.69
2024-01-15T06:14:14.699Z,98505.13
2024-01-15T06:16:41.637Z,98507.69
2024-01-15T06:19:08.752Z,98515.41
2024-01-15T06:21:35.847Z,98504.25
2024-01-15T06:24:02.952Z,98510.25
2024-01-15T06:26:29.887Z,98525.69
2024-01-15T06:28:56.946Z,98522.25
2024-01-15T06:31:24.002Z,98513.69
2024-01-15T06:33:51.273Z,98524.81
2024-01-15T06:36:18.347Z,98515.41
2024-01-15T06:38:45.795Z,98512.81
2024-01-15T06:41:12.711Z,98511.97
2024-01-15T06:43:39.599Z,98519.69
2024-01-15T06:46:07.992Z,98519.69
2024-01-15T06:48:35.977Z,98516.25
2024-01-15T06:51:02.982Z,98514.53
2024-01-15T06:53:29.903Z,98516.25
2024-01-15T06:55:56.851Z,98511.97
2024-01-15T06:58:23.801Z,98515.38
2024-01-15T07:00:50.880Z,98518.81
2024-01-15T07:03:17.850Z,98518.81
2024-01-15T07:05:44.902Z,98518.81
2024-01-15T07:08:11.918Z,98520.53
2024-01-15T07:10:38.846Z,98517.09
2024-01-15T07:13:06.721Z,98523.94
2024-01-15T07:15:33.865Z,98529.09
2024-01-15T07:18:00.948Z,98527.34
2024-01-15T07:20:28.149Z,98536.81
2024-01-15T07:22:55.071Z,98533.34
2024-01-15T07:25:21.979Z,98539.38
2024-01-15T07:27:49.226Z,98536.78
2024-01-15T07:30:16.470Z,98544.50
2024-01-15T07:32:43.574Z,98555.69
2024-01-15T07:35:11.456Z,98557.38
2024-01-15T07:37:38.476Z,98563.38
2024-01-15T07:40:07.844Z,98559.09
2024-01-15T07:42:35.847Z,98561.69
2024-01-15T07:45:02.838Z,98571.09
2024-01-15T07:47:29.884Z,98563.34
2024-01-15T07:49:58.955Z,98572.81
2024-01-15T07:52:27.141Z,98574.53
2024-01-15T07:54:54.101Z,98589.97
2024-01-15T07:57:21.111Z,98560.81
2024-01-15T07:59:48.021Z,98579.66
2024-01-15T08:02:14.926Z,98581.34
2024-01-15T08:04:42.027Z,98602.81
2024-01-15T08:07:09.157Z,98594.25
2024-01-15T08:09:36.243Z,98592.50
2024-01-15T08:12:03.329Z,98577.91
2024-01-15T08:14:30.339Z,98608.81
2024-01-15T08:16:57.274Z,98602.81
2024-01-15T08:19:25.063Z,98625.97
2024-01-15T08:21:52.087Z,98630.31
2024-01-15T08:24:19.350Z,98619.97
2024-01-15T08:26:46.456Z,98613.97
2024-01-15T08:29:13.441Z,98604.56
2024-01-15T08:31:40.682Z,98623.41
2024-01-15T08:34:07.879Z,98627.72
2024-01-15T08:36:36.662Z,98627.69
2024-01-15T08:39:05.197Z,98625.13
2024-01-15T08:41:35.795Z,98632.84
2024-01-15T08:44:04.005Z,98625.09
2024-01-15T08:46:30.985Z,98598.50
2024-01-15T08:48:58.043Z,98615.69
2024-01-15T08:51:25.117Z,98622.50
2024-01-15T08:53:52.096Z,98620.78
2024-01-15T08:56:18.993Z,98619.94
2024-01-15T08:58:47.174Z,98619.94
2024-01-15T09:01:14.417Z,98624.22
2024-01-15T09:03:44.025Z,98618.22
2024-01-15T09:06:11.990Z,98631.94
2024-01-15T09:08:39.005Z,98624.19
2024-01-15T09:11:06.313Z,98614.75
2024-01-15T09:13:33.428Z,98626.75
2024-01-15T09:16:01.341Z,98631.03
2024-01-15T09:18:29.142Z,98630.19
2024-01-15T09:20:56.146Z,98637.06
2024-01-15T09:23:23.123Z,98641.34
2024-01-15T09:25:50.808Z,98660.22
2024-01-15T09:28:17.750Z,98652.53
2024-01-15T09:30:46.083Z,98664.50
2024-01-15T09:33:13.283Z,98661.91
2024-01-15T09:35:40.322Z,98657.63
2024-01-15T09:38:07.251Z,98667.06
2024-01-15T09:40:34.910Z,98661.03
2024-01-15T09:43:03.572Z,98679.09
2024-01-15T09:45:30.689Z,98679.09
2024-01-15T09:47:57.824Z,98672.22
2024-01-15T09:50:24.822Z,98667.91
2024-01-15T09:52:52.599Z,98664.47
2024-01-15T09:55:19.551Z,98685.09
2024-01-15T09:57:49.579Z,98679.06
2024-01-15T10:00:19.122Z,98681.66
2024-01-15T10:02:46.206Z,98672.22
2024-01-15T10:05:13.134Z,98686.78
2024-01-15T10:07:41.271Z,98694.53
2024-01-15T10:10:08.907Z,98680.78
2024-01-15T10:12:36.614Z,98687.66
2024-01-15T10:15:03.738Z,98684.22
2024-01-15T10:17:32.176Z,98695.41
2024-01-15T10:19:59.237Z,98685.06
2024-01-15T10:22:27.384Z,98693.66
2024-01-15T10:24:54.470Z,98687.63
2024-01-15T10:27:21.726Z,98690.25
2024-01-15T10:29:48.707Z,98685.97
2024-01-15T10:32:15.623Z,98689.38
2024-01-15T10:34:44.404Z,98709.16
2024-01-15T10:37:11.736Z,98710.88
2024-01-15T10:39:39.437Z,98714.31
2024-01-15T10:42:07.914Z,98713.47
2024-01-15T10:44:35.691Z,98753.84
2024-01-15T10:47:02.944Z,98740.97
2024-01-15T10:49:33.132Z,98741.00
2024-01-15T10:52:03.818Z,98750.47
2024-01-15T10:54:31.620Z,98752.16
2024-01-15T10:56:58.727Z,98743.59
2024-01-15T10:59:26.155Z,98745.31
2024-01-15T11:01:55.637Z,98761.63
2024-01-15T11:04:24.922Z,98753.91
2024-01-15T11:06:56.039Z,98765.91
2024-01-15T11:09:24.882Z,98770.16
2024-01-15T11:12:08.205Z,98761.59
2024-01-15T11:14:48.956Z,98783.88
2024-01-15T11:17:17.761Z,98784.75
2024-01-15T11:19:52.152Z,98789.00
2024-01-15T11:22:49.606Z,98792.44
2024-01-15T11:25:20.211Z,98777.06
2024-01-15T11:27:53.478Z,98802.78
2024-01-15T11:30:21.512Z,98787.34
2024-01-15T11:32:48.884Z,98795.06
2024-01-15T11:35:16.272Z,98789.06
2024-01-15T11:37:52.551Z,98803.66
2024-01-15T11:40:40.258Z,98810.50
2024-01-15T11:43:08.121Z,98807.09
2024-01-15T11:45:35.358Z,98805.38
2024-01-15T11:48:17.285Z,98804.53
2024-01-15T11:50:47.890Z,98820.81
2024-01-15T11:53:35.312Z,98823.41
2024-01-15T11:56:04.913Z,98821.69
2024-01-15T11:58:32.016Z,98825.09
2024-01-15T12:00:59.385Z,98819.09
2024-01-15T12:03:26.525Z,98825.97
2024-01-15T12:05:54.131Z,98827.66
2024-01-15T12:08:25.101Z,98838.75
2024-01-15T12:10:52.493Z,98838.72
2024-01-15T12:13:19.701Z,98843.88
2024-01-15T12:15:48.202Z,98845.56
2024-01-15T12:18:20.235Z,98842.13
2024-01-15T12:20:51.040Z,98844.69
2024-01-15T12:23:19.352Z,98858.38
2024-01-15T12:25:48.047Z,98855.81
2024-01-15T12:28:16.336Z,98849.78
2024-01-15T12:30:43.929Z,98862.63
2024-01-15T12:33:11.202Z,98863.50
2024-01-15T12:35:38.449Z,98866.94
2024-01-15T12:38:06.453Z,98866.06
2024-01-15T12:40:35.604Z,98877.25
2024-01-15T12:43:03.327Z,98881.53
2024-01-15T12:45:31.453Z,98886.69
2024-01-15T12:47:58.978Z,98886.69
2024-01-15T12:50:27.257Z,98885.81
2024-01-15T12:52:54.211Z,98894.41
2024-01-15T12:55:21.280Z,98887.53
2024-01-15T12:57:48.255Z,98899.53
2024-01-15T13:00:16.235Z,98904.69
2024-01-15T13:02:44.630Z,98902.97
2024-01-15T13:05:13.419Z,98927.78
2024-01-15T13:07:41.570Z,98913.19
2024-01-15T13:10:10.184Z,98925.19
2024-01-15T13:12:38.335Z,98920.91
2024-01-15T13:15:05.662Z,98934.59
2024-01-15T13:17:32.627Z,98940.59
2024-01-15T13:19:59.974Z,98946.59
2024-01-15T13:22:33.812Z,98954.34
2024-01-15T13:25:01.633Z,98951.78
2024-01-15T13:27:29.599Z,98954.38
2024-01-15T13:29:56.871Z,98962.94
2024-01-15T13:32:30.308Z,98954.38
2024-01-15T13:34:58.704Z,98969.81
2024-01-15T13:37:26.089Z,98971.50
2024-01-15T13:39:54.150Z,98973.22
2024-01-15T13:42:24.849Z,98981.75
2024-01-15T13:44:52.391Z,98970.59
2024-01-15T13:47:19.583Z,98996.31
2024-01-15T13:49:46.789Z,99002.28
2024-01-15T13:52:14.351Z,98991.16
2024-01-15T13:54:49.050Z,98994.53
2024-01-15T13:57:19.301Z,99020.22
2024-01-15T13:59:47.115Z,99013.38
2024-01-15T14:02:17.686Z,99003.06
2024-01-15T14:04:48.245Z,99028.84
2024-01-15T14:07:15.225Z,99024.53
2024-01-15T14:09:42.129Z,99025.34
2024-01-15T14:12:09.104Z,99021.91
2024-01-15T14:14:36.008Z,99032.19
2024-01-15T14:17:02.963Z,99035.56
2024-01-15T14:19:30.057Z,99041.53
2024-01-15T14:21:57.382Z,99056.97
2024-01-15T14:24:24.469Z,99062.09
2024-01-15T14:26:51.530Z,99065.50
2024-01-15T14:29:21.661Z,99072.34
2024-01-15T14:31:49.373Z,99083.44
2024-01-15T14:34:16.733Z,99070.56
2024-01-15T14:36:44.014Z,99077.44
2024-01-15T14:39:11.581Z,99090.31
2024-01-15T14:41:38.556Z,99094.59
2024-01-15T14:44:05.574Z,99096.28
2024-01-15T14:46:32.757Z,99104.84
2024-01-15T14:48:59.854Z,99112.56
2024-01-15T14:51:27.363Z,99113.41
2024-01-15T14:53:54.428Z,99118.53
2024-01-15T14:56:21.981Z,99127.13
2024-01-15T14:58:49.151Z,99131.41
2024-01-15T15:01:16.292Z,99138.22
2024-01-15T15:03:45.291Z,99126.97
2024-01-15T15:06:13.647Z,99137.31
2024-01-15T15:08:41.386Z,99147.59
2024-01-15T15:11:08.585Z,99148.41
2024-01-15T15:13:42.506Z,99151.84
2024-01-15T15:16:14.427Z,99158.63
2024-01-15T15:18:44.820Z,99159.53
2024-01-15T15:21:12.651Z,99162.94
2024-01-15T15:23:43.120Z,99166.38
2024-01-15T15:26:10.413Z,99164.66
2024-01-15T15:28:40.164Z,99168.09
2024-01-15T15:31:12.882Z,99168.84
2024-01-15T15:33:40.356Z,99178.34
2024-01-15T15:36:07.534Z,99159.38
2024-01-15T15:38:35.267Z,99186.06
2024-01-15T15:41:02.476Z,99186.06
2024-01-15T15:43:30.125Z,99203.19
2024-01-15T15:46:00.697Z,99208.31
2024-01-15T15:48:27.920Z,99214.28
2024-01-15T15:50:56.953Z,99216.81
2024-01-15T15:53:24.327Z,99217.69
2024-01-15T15:55:51.217Z,99225.38
2024-01-15T15:58:18.288Z,99217.69
2024-01-15T16:00:45.298Z,99235.66
2024-01-15T16:03:12.395Z,99230.41
2024-01-15T16:05:45.768Z,99246.78
2024-01-15T16:08:19.465Z,99253.69
2024-01-15T16:10:52.498Z,99258.81
2024-01-15T16:13:20.569Z,99252.78
2024-01-15T16:15:47.813Z,99259.63
2024-01-15T16:23:19.737Z,99269.03
2024-01-15T16:23:34.348Z,99272.44
2024-01-15T16:24:10.991Z,99280.13
2024-01-15T16:26:36.763Z,99278.38
2024-01-15T16:29:04.769Z,99285.25
2024-01-15T16:31:32.524Z,99291.28
2024-01-15T16:34:04.711Z,99293.03
2024-01-15T16:36:33.462Z,99294.75
2024-01-15T16:39:01.848Z,99301.63
2024-01-15T16:41:28.868Z,99294.78
2024-01-15T16:43:55.785Z,99297.34
2024-01-15T16:46:22.919Z,99299.06
2024-01-15T16:48:49.907Z,99305.09
2024-01-15T16:51:16.975Z,99305.94
2024-01-15T16:53:44.015Z,99305.06
2024-01-15T16:56:10.961Z,99317.88
2024-01-15T16:58:37.894Z,99314.41
2024-01-15T17:01:05.527Z,99321.25
2024-01-15T17:03:32.483Z,99314.44
2024-01-15T17:05:59.499Z,99327.34
2024-01-15T17:08:26.487Z,99328.22
2024-01-15T17:10:53.616Z,99314.44
2024-01-15T17:13:20.731Z,99329.06
2024-01-15T17:15:47.651Z,99337.63
2024-01-15T17:18:14.659Z,99338.41
2024-01-15T17:20:45.308Z,99341.81
2024-01-15T17:23:12.290Z,99350.38
2024-01-15T17:25:39.201Z,99351.25
2024-01-15T17:28:06.206Z,99358.06
2024-01-15T17:30:33.115Z,99370.94
2024-01-15T17:33:00.653Z,99362.34
2024-01-15T17:35:27.646Z,99369.16
2024-01-15T17:37:54.941Z,99357.09
2024-01-15T17:40:23.520Z,99371.69
2024-01-15T17:42:50.970Z,99361.41
2024-01-15T17:45:20.789Z,99375.06
2024-01-15T17:47:50.336Z,99370.63
2024-01-15T17:50:19.922Z,99379.22
2024-01-15T17:52:46.951Z,99380.91
2024-01-15T17:55:13.924Z,99378.25
2024-01-15T17:57:40.833Z,99385.06
2024-01-15T18:00:08.592Z,99392.66
2024-01-15T18:02:36.060Z,99394.34
2024-01-15T18:05:03.189Z,99396.81
2024-01-15T18:07:30.183Z,99404.53
2024-01-15T18:09:57.108Z,99414.75
2024-01-15T18:12:25.284Z,99413.00
2024-01-15T18:14:52.247Z,99434.34
2024-01-15T18:17:19.153Z,99434.28
2024-01-15T18:19:46.296Z,99426.50
2024-01-15T18:22:14.110Z,99442.72
2024-01-15T18:24:41.068Z,99428.84
2024-01-15T18:27:09.462Z,99431.47
2024-01-15T18:29:36.477Z,99440.06
2024-01-15T18:32:04.374Z,99433.16
2024-01-15T18:34:31.364Z,99429.63
2024-01-15T18:36:58.360Z,99444.25
2024-01-15T18:39:25.475Z,99445.94
2024-01-15T18:41:52.451Z,99451.88
2024-01-15T18:44:19.486Z,99446.72
2024-01-15T18:46:46.955Z,99457.88
2024-01-15T18:49:14.391Z,99462.13
2024-01-15T18:51:41.525Z,99458.72
2024-01-15T18:54:08.476Z,99463.06
2024-01-15T18:56:41.679Z,99446.66
2024-01-15T18:59:09.171Z,99459.63
2024-01-15T19:01:37.266Z,99465.72
2024-01-15T19:04:04.361Z,99478.56
2024-01-15T19:06:31.292Z,99469.91
2024-01-15T19:08:58.201Z,99476.03
2024-01-15T19:11:25.216Z,99485.50
2024-01-15T19:13:52.676Z,99480.38
2024-01-15T19:16:23.358Z,99493.25
2024-01-15T19:18:51.918Z,99496.63
2024-01-15T19:21:19.159Z,99498.44
2024-01-15T19:23:46.175Z,99502.84
2024-01-15T19:26:20.570Z,99506.28
2024-01-15T19:28:47.657Z,99511.41
2024-01-15T19:31:15.145Z,99506.28
2024-01-15T19:33:43.896Z,99509.72
2024-01-15T19:36:29.283Z,99514.78
2024-01-15T19:38:56.168Z,99515.56
2024-01-15T19:41:23.440Z,99523.25
2024-01-15T19:43:50.444Z,99525.72
2024-01-15T19:46:17.466Z,99536.78
2024-01-15T19:48:44.523Z,99534.16
2024-01-15T19:51:13.940Z,99539.19
2024-01-15T19:53:42.652Z,99547.88
2024-01-15T19:56:09.808Z,99552.13
2024-01-15T19:58:38.104Z,99553.81
2024-01-15T20:01:06.202Z,99559.78
2024-01-15T20:03:33.259Z,99578.72
2024-01-15T20:06:00.503Z,99580.53
2024-01-15T20:08:27.623Z,99581.44
2024-01-15T20:10:54.653Z,99587.44
2024-01-15T20:13:21.567Z,99590.91
2024-01-15T20:15:48.502Z,99596.03
2024-01-15T20:18:15.651Z,99597.75
2024-01-15T20:20:43.151Z,99596.88
2024-01-15T20:23:10.680Z,99612.34
2024-01-15T20:25:39.570Z,99613.25
2024-01-15T20:28:07.745Z,99623.53
2024-01-15T20:30:34.898Z,99626.09
2024-01-15T20:33:02.350Z,99631.28
2024-01-15T20:35:29.902Z,99631.34
2024-01-15T20:37:58.362Z,99628.78
2024-01-15T20:40:25.375Z,99628.78
2024-01-15T20:42:52.305Z,99634.75
2024-01-15T20:45:19.235Z,99639.91
2024-01-15T20:47:46.346Z,99642.53
2024-01-15T20:50:13.503Z,99639.91
2024-01-15T20:52:40.501Z,99648.50
2024-01-15T20:55:07.777Z,99637.28
2024-01-15T20:57:34.762Z,99649.38
2024-01-15T21:00:01.702Z,99653.59
2024-01-15T21:02:28.821Z,99657.88
2024-01-15T21:04:55.869Z,99668.03
2024-01-15T21:07:23.404Z,99675.78
2024-01-15T21:09:50.304Z,99676.66
2024-01-15T21:12:17.192Z,99673.22
2024-01-15T21:14:44.135Z,99673.16
2024-01-15T21:17:11.114Z,99662.66
2024-01-15T21:19:39.121Z,99667.88
2024-01-15T21:22:06.069Z,99667.81
2024-01-15T21:24:32.990Z,99669.53
2024-01-15T21:26:59.899Z,99671.19
2024-01-15T21:29:26.945Z,99675.47
2024-01-15T21:31:54.142Z,99671.19
2024-01-15T21:34:22.278Z,99669.41
2024-01-15T21:36:51.072Z,99656.41
2024-01-15T21:39:18.642Z,99668.50
2024-01-15T21:41:46.138Z,99652.13
2024-01-15T21:44:13.587Z,99669.41
2024-01-15T21:46:40.655Z,99652.13
2024-01-15T21:49:07.648Z,99678.88
2024-01-15T21:51:35.620Z,99681.44
2024-01-15T21:54:03.087Z,99694.28
2024-01-15T21:56:30.178Z,99693.47
2024-01-15T21:58:57.157Z,99701.19
2024-01-15T22:01:24.637Z,99699.47
2024-01-15T22:03:53.617Z,99698.59
2024-01-15T22:06:20.730Z,99699.47
2024-01-15T22:08:48.748Z,99707.19
2024-01-15T22:11:16.064Z,99708.09
2024-01-15T22:13:43.012Z,99720.06
2024-01-15T22:16:11.370Z,99729.50
2024-01-15T22:18:38.573Z,99730.38
2024-01-15T22:21:06.532Z,99730.22
2024-01-15T22:23:33.543Z,99726.81
2024-01-15T22:26:00.770Z,99736.31
2024-01-15T22:28:28.224Z,99741.47
2024-01-15T22:30:55.137Z,99745.75
2024-01-15T22:33:22.227Z,99750.03
2024-01-15T22:35:49.320Z,99753.41
2024-01-15T22:38:16.308Z,99754.38
2024-01-15T22:40:43.253Z,99748.31
2024-01-15T22:43:10.154Z,99753.56
2024-01-15T22:45:37.733Z,99760.47
2024-01-15T22:48:05.054Z,99764.75
2024-01-15T22:50:32.111Z,99763.03
2024-01-15T22:52:59.056Z,99771.66
2024-01-15T22:55:25.982Z,99772.50
2024-01-15T22:57:53.000Z,99772.47
2024-01-15T23:00:20.422Z,99773.31
2024-01-15T23:02:48.910Z,99775.03
2024-01-15T23:05:17.181Z,99777.59
2024-01-15T23:07:44.382Z,99780.16
2024-01-15T23:10:11.486Z,99774.03
2024-01-15T23:12:39.313Z,99784.44
2024-01-15T23:15:06.385Z,99781.00
2024-01-15T23:17:33.451Z,99785.28
2024-01-15T23:20:00.464Z,99787.84
2024-01-15T23:22:27.454Z,99783.56
2024-01-15T23:24:54.359Z,99791.28
2024-01-15T23:27:21.248Z,99795.63
2024-01-15T23:29:48.260Z,99803.34
2024-01-15T23:32:15.235Z,99806.81
2024-01-15T23:34:42.171Z,99807.66
2024-01-15T23:37:09.060Z,99818.84
2024-01-15T23:39:36.047Z,99817.94
2024-01-15T23:42:03.379Z,99828.22
2024-01-15T23:44:30.316Z,99828.28
2024-01-15T23:46:57.294Z,99825.75
2024-01-15T23:49:24.261Z,99827.47
2024-01-15T23:51:51.196Z,99824.91
2024-01-15T23:54:18.868Z,99831.75
2024-01-15T23:56:46.264Z,99823.94
2024-01-15T23:59:13.382Z,99827.47
